createdAt,value
2018-12-02T00:00:08.627Z,5.73
2018-12-02T00:01:29.634Z,5.84
2018-12-02T00:02:08.643Z,5.88
2018-12-02T00:03:08.686Z,5.80
2018-12-02T00:04:29.706Z,5.90
2018-12-02T00:05:08.721Z,5.87
2018-12-02T00:06:29.870Z,5.91
2018-12-02T00:07:08.730Z,5.99
2018-12-02T00:08:08.746Z,5.98
2018-12-02T00:09:29.832Z,5.90
2018-12-02T00:10:08.798Z,5.83
2018-12-02T00:11:29.822Z,5.88
2018-12-02T00:12:08.829Z,5.97
2018-12-02T00:13:08.878Z,5.98
2018-12-02T00:14:29.881Z,6.10
2018-12-02T00:15:08.925Z,6.10
2018-12-02T00:16:29.937Z,6.12
2018-12-02T00:17:08.945Z,6.05
2018-12-02T00:18:08.971Z,6.07
2018-12-02T00:19:29.972Z,5.92
2018-12-02T00:20:09.005Z,5.98
2018-12-02T00:21:30.032Z,5.87
2018-12-02T00:22:09.024Z,5.83
2018-12-02T00:23:09.063Z,5.81
2018-12-02T00:24:30.075Z,5.77
2018-12-02T00:25:09.099Z,5.84
2018-12-02T00:26:30.135Z,5.84
2018-12-02T00:27:09.121Z,5.91
2018-12-02T00:28:09.153Z,5.84
2018-12-02T00:29:30.250Z,5.83
2018-12-02T00:30:09.192Z,5.84
2018-12-02T00:31:30.229Z,5.90
2018-12-02T00:32:09.210Z,5.94
2018-12-02T00:33:09.256Z,5.92
2018-12-02T00:34:30.308Z,5.80
2018-12-02T00:35:09.287Z,5.90
2018-12-02T00:36:30.310Z,5.79
2018-12-02T00:37:09.320Z,5.90
2018-12-02T00:38:09.357Z,5.92
2018-12-02T00:39:30.354Z,5.84
2018-12-02T00:40:10.239Z,5.88
2018-12-02T00:41:30.408Z,5.81
2018-12-02T00:42:09.427Z,5.88
2018-12-02T00:43:09.442Z,5.80
2018-12-02T00:44:30.487Z,5.80
2018-12-02T00:45:09.474Z,5.70
2018-12-02T00:46:30.500Z,5.74
2018-12-02T00:47:09.493Z,5.83
2018-12-02T00:48:09.718Z,5.84
2018-12-02T00:49:30.597Z,5.95
2018-12-02T00:50:09.557Z,5.87
2018-12-02T00:51:30.603Z,5.90
2018-12-02T00:52:09.653Z,5.87
2018-12-02T00:53:09.635Z,5.90
2018-12-02T00:54:30.655Z,5.97
2018-12-02T00:55:09.698Z,5.98
2018-12-02T00:56:30.719Z,5.98
2018-12-02T00:57:09.743Z,6.07
2018-12-02T00:58:09.723Z,6.07
2018-12-02T00:59:30.751Z,6.06
2018-12-02T01:00:09.791Z,6.06
2018-12-02T01:01:30.838Z,6.02
2018-12-02T01:02:09.821Z,5.98
2018-12-02T01:03:09.924Z,5.99
2018-12-02T01:04:30.859Z,6.05
2018-12-02T01:05:09.898Z,6.10
2018-12-02T01:06:30.899Z,6.06
2018-12-02T01:07:09.890Z,6.06
2018-12-02T01:08:09.923Z,5.98
2018-12-02T01:09:30.965Z,6.07
2018-12-02T01:10:09.959Z,5.99
2018-12-02T01:11:31.023Z,6.07
2018-12-02T01:12:09.972Z,6.02
2018-12-02T01:13:10.063Z,6.06
2018-12-02T01:14:31.052Z,5.97
2018-12-02T01:15:10.064Z,5.87
2018-12-02T01:16:31.086Z,5.77
2018-12-02T01:17:10.087Z,5.74
2018-12-02T01:18:10.142Z,5.87
2018-12-02T01:19:31.180Z,5.87
2018-12-02T01:20:10.146Z,5.88
2018-12-02T01:21:31.210Z,5.84
2018-12-02T01:22:10.189Z,5.83
2018-12-02T01:23:10.292Z,5.83
2018-12-02T01:24:31.227Z,5.81
2018-12-02T01:25:10.225Z,5.90
2018-12-02T01:26:31.269Z,5.91
2018-12-02T01:27:10.259Z,5.94
2018-12-02T01:28:10.310Z,5.94
2018-12-02T01:29:31.325Z,5.97
2018-12-02T01:30:10.329Z,5.97
2018-12-02T01:31:31.380Z,5.97
2018-12-02T01:32:10.395Z,5.88
2018-12-02T01:33:10.465Z,5.79
2018-12-02T01:34:31.423Z,5.83
2018-12-02T01:35:10.437Z,5.97
2018-12-02T01:36:31.449Z,5.99
2018-12-02T01:37:10.467Z,6.06
2018-12-02T01:38:10.473Z,5.84
2018-12-02T01:39:31.540Z,5.88
2018-12-02T01:40:10.503Z,5.83
2018-12-02T01:41:31.577Z,5.83
2018-12-02T01:42:10.567Z,5.83
2018-12-02T01:43:10.576Z,5.84
2018-12-02T01:44:31.602Z,5.94
2018-12-02T01:45:10.638Z,5.87
2018-12-02T01:46:31.639Z,5.84
2018-12-02T01:47:10.646Z,5.72
2018-12-02T01:48:10.663Z,5.76
2018-12-02T01:49:31.712Z,5.83
2018-12-02T01:50:10.725Z,5.81
2018-12-02T01:51:31.776Z,5.87
2018-12-02T01:52:10.762Z,5.72
2018-12-02T01:53:10.782Z,5.80
2018-12-02T01:54:35.449Z,5.83
2018-12-02T01:55:10.845Z,5.81
2018-12-02T01:56:32.575Z,5.74
2018-12-02T01:57:10.876Z,5.69
2018-12-02T01:58:10.860Z,5.72
2018-12-02T01:59:33.018Z,5.64
2018-12-02T02:00:10.919Z,5.65
2018-12-02T02:01:32.061Z,5.51
2018-12-02T02:02:11.138Z,5.52
2018-12-02T02:03:11.275Z,5.49
2018-12-02T02:04:32.306Z,5.61
2018-12-02T02:05:11.167Z,5.49
2018-12-02T02:06:32.319Z,5.59
2018-12-02T02:07:11.291Z,5.56
2018-12-02T02:08:11.253Z,5.70
2018-12-02T02:09:33.040Z,5.65
2018-12-02T02:10:11.118Z,5.64
2018-12-02T02:11:32.514Z,5.65
2018-12-02T02:12:11.320Z,5.61
2018-12-02T02:13:11.565Z,5.67
2018-12-02T02:14:32.286Z,5.58
2018-12-02T02:15:11.315Z,5.56
2018-12-02T02:16:32.555Z,5.58
2018-12-02T02:17:11.524Z,5.64
2018-12-02T02:18:11.754Z,5.64
2018-12-02T02:19:32.453Z,5.61
2018-12-02T02:20:11.518Z,5.51
2018-12-02T02:21:32.488Z,5.40
2018-12-02T02:22:11.648Z,5.49
2018-12-02T02:23:11.404Z,5.51
2018-12-02T02:24:32.425Z,5.47
2018-12-02T02:25:11.658Z,5.52
2018-12-02T02:26:32.687Z,5.54
2018-12-02T02:27:11.551Z,5.58
2018-12-02T02:34:20.185Z,5.49
2018-12-02T02:34:51.421Z,5.51
2018-12-02T02:36:12.579Z,5.54
2018-12-02T02:36:51.433Z,5.55
2018-12-02T02:37:51.459Z,5.56
2018-12-02T02:39:12.642Z,5.55
2018-12-02T02:39:51.573Z,5.64
2018-12-02T02:41:12.526Z,5.65
2018-12-02T02:41:51.628Z,5.61
2018-12-02T02:42:51.584Z,5.61
2018-12-02T02:44:12.687Z,5.61
2018-12-02T02:44:51.482Z,5.61
2018-12-02T02:46:12.538Z,5.56
2018-12-02T02:46:51.516Z,5.55
2018-12-02T02:47:51.536Z,5.61
2018-12-02T02:49:12.579Z,5.47
2018-12-02T02:49:51.555Z,5.61
2018-12-02T02:51:13.266Z,5.59
2018-12-02T02:51:51.614Z,5.59
2018-12-02T02:52:51.689Z,5.61
2018-12-02T02:54:12.678Z,5.61
2018-12-02T02:54:51.686Z,5.65
2018-12-02T02:56:12.703Z,5.65
2018-12-02T02:56:51.703Z,5.81
2018-12-02T02:57:51.707Z,5.90
2018-12-02T02:59:12.908Z,5.88
2018-12-02T02:59:51.751Z,5.99
2018-12-02T03:01:12.793Z,5.94
2018-12-02T03:01:51.792Z,5.79
2018-12-02T03:02:51.805Z,5.84
2018-12-02T03:04:12.829Z,5.72
2018-12-02T03:04:51.851Z,5.81
2018-12-02T03:06:12.892Z,5.64
2018-12-02T03:06:51.891Z,5.67
2018-12-02T03:07:51.900Z,5.84
2018-12-02T03:09:12.941Z,5.88
2018-12-02T03:09:51.956Z,5.80
2018-12-02T03:11:12.983Z,5.81
2018-12-02T03:11:51.971Z,5.94
2018-12-02T03:12:52.010Z,5.73
2018-12-02T03:14:13.037Z,5.79
2018-12-02T03:14:52.034Z,5.83
2018-12-02T03:16:13.060Z,5.74
2018-12-02T03:16:52.084Z,5.67
2018-12-02T03:17:52.095Z,5.70
2018-12-02T03:19:13.134Z,5.67
2018-12-02T03:19:52.130Z,5.70
2018-12-02T03:21:13.142Z,5.69
2018-12-02T03:21:52.172Z,5.69
2018-12-02T03:22:52.198Z,5.72
2018-12-02T03:24:13.227Z,5.69
2018-12-02T03:24:52.226Z,5.74
2018-12-02T03:26:13.266Z,5.73
2018-12-02T03:26:52.250Z,5.72
2018-12-02T03:27:52.285Z,5.67
2018-12-02T03:29:13.330Z,5.72
2018-12-02T03:29:52.303Z,5.70
2018-12-02T03:31:13.382Z,5.80
2018-12-02T03:31:52.343Z,5.70
2018-12-02T03:32:52.425Z,5.88
2018-12-02T03:34:13.393Z,5.81
2018-12-02T03:34:52.413Z,5.74
2018-12-02T03:36:13.440Z,5.81
2018-12-02T03:36:52.486Z,5.74
2018-12-02T03:37:52.473Z,5.72
2018-12-02T03:39:13.541Z,5.77
2018-12-02T03:39:52.509Z,5.69
2018-12-02T03:41:13.569Z,5.74
2018-12-02T03:41:52.549Z,5.84
2018-12-02T03:42:52.573Z,5.81
2018-12-02T03:44:13.613Z,5.79
2018-12-02T03:44:52.616Z,5.92
2018-12-02T03:46:13.637Z,5.90
2018-12-02T03:46:52.645Z,5.81
2018-12-02T03:47:52.681Z,5.79
2018-12-02T03:49:13.692Z,5.77
2018-12-02T03:49:52.724Z,5.74
2018-12-02T03:51:13.723Z,5.79
2018-12-02T03:51:52.739Z,5.80
2018-12-02T03:52:52.769Z,5.83
2018-12-02T03:54:13.784Z,5.77
2018-12-02T03:54:52.808Z,5.87
2018-12-02T03:56:13.844Z,5.88
2018-12-02T03:56:52.835Z,5.87
2018-12-02T03:57:52.849Z,5.88
2018-12-02T03:59:13.888Z,5.90
2018-12-02T03:59:52.882Z,5.84
2018-12-02T04:01:13.918Z,5.74
2018-12-02T04:01:52.920Z,5.81
2018-12-02T04:02:52.944Z,5.88
2018-12-02T04:04:13.986Z,5.88
2018-12-02T04:04:52.985Z,5.72
2018-12-02T04:06:14.033Z,5.77
2018-12-02T04:06:53.026Z,5.83
2018-12-02T04:07:53.047Z,5.83
2018-12-02T04:09:14.076Z,5.81
2018-12-02T04:09:53.067Z,5.84
2018-12-02T04:11:14.114Z,5.83
2018-12-02T04:11:53.108Z,5.81
2018-12-02T04:12:53.137Z,5.87
2018-12-02T04:14:14.167Z,5.92
2018-12-02T04:14:53.160Z,5.81
2018-12-02T04:16:14.220Z,5.81
2018-12-02T04:16:53.201Z,5.80
2018-12-02T04:17:53.231Z,5.84
2018-12-02T04:19:14.255Z,5.83
2018-12-02T04:19:53.268Z,5.83
2018-12-02T04:21:14.311Z,5.84
2018-12-02T04:21:53.306Z,5.80
2018-12-02T04:22:53.318Z,5.83
2018-12-02T04:24:14.351Z,5.97
2018-12-02T04:24:53.351Z,5.98
2018-12-02T04:26:14.410Z,5.91
2018-12-02T04:26:53.397Z,5.98
2018-12-02T04:27:53.418Z,6.01
2018-12-02T04:29:14.462Z,5.97
2018-12-02T04:29:53.457Z,5.92
2018-12-02T04:31:14.502Z,5.99
2018-12-02T04:31:53.514Z,6.09
2018-12-02T04:32:53.532Z,6.05
2018-12-02T04:34:14.546Z,5.97
2018-12-02T04:34:53.539Z,6.06
2018-12-02T04:36:14.607Z,6.07
2018-12-02T04:36:53.595Z,6.06
2018-12-02T04:37:53.603Z,6.13
2018-12-02T04:39:14.629Z,6.09
2018-12-02T04:39:53.654Z,6.15
2018-12-02T04:41:14.699Z,6.19
2018-12-02T04:41:53.682Z,6.28
2018-12-02T04:42:53.703Z,6.16
2018-12-02T04:44:14.754Z,6.25
2018-12-02T04:44:53.732Z,6.28
2018-12-02T04:46:14.810Z,6.32
2018-12-02T04:46:53.773Z,6.31
2018-12-02T04:47:53.794Z,6.29
2018-12-02T04:49:14.837Z,6.36
2018-12-02T04:49:53.829Z,6.26
2018-12-02T04:51:14.866Z,6.29
2018-12-02T04:51:53.889Z,6.26
2018-12-02T04:52:53.896Z,6.15
2018-12-02T04:54:14.942Z,6.07
2018-12-02T04:54:53.936Z,6.22
2018-12-02T04:56:14.975Z,6.22
2018-12-02T04:56:53.943Z,6.07
2018-12-02T04:57:53.977Z,6.12
2018-12-02T04:59:15.039Z,6.09
2018-12-02T04:59:54.040Z,6.13
2018-12-02T05:01:15.088Z,6.28
2018-12-02T05:01:54.071Z,6.28
2018-12-02T05:02:54.111Z,6.26
2018-12-02T05:04:15.121Z,6.22
2018-12-02T05:04:54.115Z,6.25
2018-12-02T05:06:15.166Z,6.36
2018-12-02T05:06:54.159Z,6.26
2018-12-02T05:07:54.192Z,6.28
2018-12-02T05:09:15.223Z,6.28
2018-12-02T05:09:54.228Z,6.31
2018-12-02T05:11:15.251Z,6.31
2018-12-02T05:11:54.249Z,6.22
2018-12-02T05:12:54.262Z,6.25
2018-12-02T05:14:15.306Z,6.25
2018-12-02T05:14:54.325Z,6.25
2018-12-02T05:16:15.346Z,6.17
2018-12-02T05:16:54.350Z,6.26
2018-12-02T05:17:54.340Z,6.35
2018-12-02T05:19:15.414Z,6.20
2018-12-02T05:19:54.408Z,6.26
2018-12-02T05:21:15.457Z,6.32
2018-12-02T05:21:54.460Z,6.31
2018-12-02T05:22:54.485Z,6.34
2018-12-02T05:24:15.507Z,6.35
2018-12-02T05:24:54.505Z,6.25
2018-12-02T05:26:15.553Z,6.26
2018-12-02T05:26:54.546Z,6.28
2018-12-02T05:27:54.561Z,6.28
2018-12-02T05:29:15.604Z,6.28
2018-12-02T05:29:54.620Z,6.20
2018-12-02T05:31:15.644Z,6.28
2018-12-02T05:31:54.665Z,6.26
2018-12-02T05:32:54.643Z,6.25
2018-12-02T05:34:15.694Z,6.25
2018-12-02T05:34:54.695Z,6.32
2018-12-02T05:36:15.750Z,6.39
2018-12-02T05:36:54.743Z,6.35
2018-12-02T05:37:54.773Z,6.36
2018-12-02T05:39:15.789Z,6.25
2018-12-02T05:39:54.795Z,6.36
2018-12-02T05:41:15.817Z,6.34
2018-12-02T05:41:54.858Z,6.39
2018-12-02T05:42:54.852Z,6.36
2018-12-02T05:44:15.880Z,6.43
2018-12-02T05:44:54.904Z,6.32
2018-12-02T05:46:15.910Z,6.26
2018-12-02T05:46:54.961Z,6.38
2018-12-02T05:47:54.947Z,6.26
2018-12-02T05:49:15.992Z,6.34
2018-12-02T05:49:54.979Z,6.29
2018-12-02T05:51:16.021Z,6.25
2018-12-02T05:51:55.034Z,6.20
2018-12-02T05:52:55.041Z,6.29
2018-12-02T05:54:16.088Z,6.39
2018-12-02T05:54:55.084Z,6.29
2018-12-02T05:56:16.123Z,6.26
2018-12-02T05:56:55.146Z,6.35
2018-12-02T05:57:55.137Z,6.43
2018-12-02T05:59:16.203Z,6.43
2018-12-02T05:59:55.181Z,6.31
2018-12-02T06:01:16.197Z,6.39
2018-12-02T06:01:55.251Z,6.36
2018-12-02T06:02:55.241Z,6.32
2018-12-02T06:04:16.281Z,6.34
2018-12-02T06:04:55.298Z,6.32
2018-12-02T06:06:16.317Z,6.34
2018-12-02T06:06:55.315Z,6.34
2018-12-02T06:07:55.361Z,6.39
2018-12-02T06:09:16.376Z,6.39
2018-12-02T06:09:55.366Z,6.32
2018-12-02T06:11:16.395Z,6.32
2018-12-02T06:11:55.417Z,6.34
2018-12-02T06:12:55.439Z,6.39
2018-12-02T06:14:16.464Z,6.41
2018-12-02T06:14:55.463Z,6.34
2018-12-02T06:16:16.494Z,6.36
2018-12-02T06:16:55.500Z,6.43
2018-12-02T06:17:55.519Z,6.34
2018-12-02T06:19:16.564Z,6.36
2018-12-02T06:19:55.555Z,6.41
2018-12-02T06:21:16.618Z,6.41
2018-12-02T06:21:55.606Z,6.38
2018-12-02T06:22:55.658Z,6.52
2018-12-02T06:24:16.645Z,6.47
2018-12-02T06:24:55.657Z,6.52
2018-12-02T06:26:16.680Z,6.52
2018-12-02T06:26:55.706Z,6.53
2018-12-02T06:27:55.726Z,6.47
2018-12-02T06:29:16.771Z,6.47
2018-12-02T06:29:55.743Z,6.47
2018-12-02T06:31:16.789Z,6.59
2018-12-02T06:31:55.800Z,6.53
2018-12-02T06:32:55.813Z,6.54
2018-12-02T06:34:16.845Z,6.53
2018-12-02T06:34:55.880Z,6.53
2018-12-02T06:36:16.910Z,6.52
2018-12-02T06:36:55.913Z,6.53
2018-12-02T06:37:55.901Z,6.54
2018-12-02T06:39:17.902Z,6.65
2018-12-02T06:39:55.975Z,6.64
2018-12-02T06:41:17.013Z,6.50
2018-12-02T06:41:55.982Z,6.64
2018-12-02T06:42:56.038Z,6.60
2018-12-02T06:44:17.060Z,6.64
2018-12-02T06:44:56.074Z,6.67
2018-12-02T06:46:17.071Z,6.65
2018-12-02T06:46:56.062Z,6.64
2018-12-02T06:47:56.122Z,6.60
2018-12-02T06:49:17.150Z,6.64
2018-12-02T06:49:56.135Z,6.65
2018-12-02T06:51:17.174Z,6.59
2018-12-02T06:51:56.178Z,6.57
2018-12-02T06:52:56.184Z,6.64
2018-12-02T06:54:17.238Z,6.64
2018-12-02T06:54:56.212Z,6.49
2018-12-02T06:56:17.265Z,6.52
2018-12-02T06:56:56.283Z,6.53
2018-12-02T06:57:56.390Z,6.50
2018-12-02T06:59:17.330Z,6.59
2018-12-02T06:59:56.341Z,6.67
2018-12-02T07:01:17.371Z,6.54
2018-12-02T07:01:56.372Z,6.68
2018-12-02T07:02:56.406Z,6.65
2018-12-02T07:04:17.455Z,6.53
2018-12-02T07:04:56.451Z,6.49
2018-12-02T07:06:17.466Z,6.54
2018-12-02T07:06:56.464Z,6.47
2018-12-02T07:07:56.477Z,6.57
2018-12-02T07:09:18.772Z,6.67
2018-12-02T07:09:56.542Z,6.50
2018-12-02T07:11:17.569Z,6.59
2018-12-02T07:11:56.572Z,6.52
2018-12-02T07:12:57.072Z,6.56
2018-12-02T07:14:17.610Z,6.49
2018-12-02T07:14:56.661Z,6.54
2018-12-02T07:16:17.675Z,6.49
2018-12-02T07:16:56.689Z,6.50
2018-12-02T07:17:56.673Z,6.67
2018-12-02T07:19:17.721Z,6.57
2018-12-02T07:19:56.735Z,6.62
2018-12-02T07:21:17.742Z,6.62
2018-12-02T07:21:56.757Z,6.52
2018-12-02T07:22:56.773Z,6.57
2018-12-02T07:24:17.813Z,6.64
2018-12-02T07:24:56.815Z,6.62
2018-12-02T07:26:17.859Z,6.56
2018-12-02T07:26:56.849Z,6.67
2018-12-02T07:27:56.865Z,6.62
2018-12-02T07:29:17.984Z,6.62
2018-12-02T07:29:56.925Z,6.60
2018-12-02T07:31:17.972Z,6.68
2018-12-02T07:31:56.942Z,6.70
2018-12-02T07:32:56.971Z,6.71
2018-12-02T07:34:18.031Z,6.70
2018-12-02T07:34:57.067Z,6.67
2018-12-02T07:36:18.051Z,6.74
2018-12-02T07:36:57.067Z,6.80
2018-12-02T07:37:57.053Z,6.78
2018-12-02T07:39:18.132Z,6.70
2018-12-02T07:39:57.118Z,6.68
2018-12-02T07:41:18.140Z,6.65
2018-12-02T07:41:57.134Z,6.68
2018-12-02T07:42:57.171Z,6.75
2018-12-02T07:44:18.209Z,6.65
2018-12-02T07:44:57.219Z,6.67
2018-12-02T07:46:18.232Z,6.62
2018-12-02T07:46:57.232Z,6.68
2018-12-02T07:47:57.275Z,6.67
2018-12-02T07:49:18.293Z,6.65
2018-12-02T07:49:57.304Z,6.62
2018-12-02T07:51:18.327Z,6.68
2018-12-02T07:51:57.352Z,6.64
2018-12-02T07:52:57.374Z,6.71
2018-12-02T07:54:18.386Z,6.70
2018-12-02T07:54:57.400Z,6.65
2018-12-02T07:56:18.457Z,6.75
2018-12-02T07:56:57.440Z,6.83
2018-12-02T07:57:57.561Z,6.93
2018-12-02T07:59:18.485Z,6.74
2018-12-02T07:59:57.512Z,6.71
2018-12-02T08:01:18.524Z,6.71
2018-12-02T08:01:57.530Z,6.85
2018-12-02T08:02:57.557Z,6.83
2018-12-02T08:04:18.576Z,6.80
2018-12-02T08:04:57.581Z,6.86
2018-12-02T08:06:18.626Z,6.87
2018-12-02T08:06:57.642Z,6.70
2018-12-02T08:07:57.694Z,6.75
2018-12-02T08:09:18.672Z,6.83
2018-12-02T08:09:57.687Z,6.83
2018-12-02T08:11:18.737Z,6.75
2018-12-02T08:11:57.756Z,6.82
2018-12-02T08:12:57.759Z,6.78
2018-12-02T08:14:18.792Z,6.71
2018-12-02T08:14:57.802Z,6.83
2018-12-02T08:16:18.833Z,6.83
2018-12-02T08:16:57.840Z,6.93
2018-12-02T08:17:57.846Z,6.82
2018-12-02T08:19:18.891Z,6.83
2018-12-02T08:19:57.887Z,6.75
2018-12-02T08:21:18.975Z,6.75
2018-12-02T08:21:57.954Z,6.78
2018-12-02T08:22:57.950Z,6.93
2018-12-02T08:24:18.989Z,6.83
2018-12-02T08:24:58.001Z,6.75
2018-12-02T08:26:19.045Z,6.75
2018-12-02T08:26:58.028Z,6.90
2018-12-02T08:27:58.024Z,6.86
2018-12-02T08:29:19.069Z,6.85
2018-12-02T08:29:58.086Z,6.87
2018-12-02T08:31:19.102Z,6.93
2018-12-02T08:31:58.116Z,6.92
2018-12-02T08:32:58.147Z,6.90
2018-12-02T08:34:19.174Z,6.86
2018-12-02T08:34:58.196Z,6.89
2018-12-02T08:36:19.255Z,6.93
2018-12-02T08:36:58.232Z,7.10
2018-12-02T08:37:58.250Z,7.07
2018-12-02T08:39:19.260Z,6.97
2018-12-02T08:39:58.270Z,6.93
2018-12-02T08:41:19.298Z,6.96
2018-12-02T08:41:58.328Z,7.07
2018-12-02T08:42:58.351Z,7.00
2018-12-02T08:44:19.371Z,6.95
2018-12-02T08:44:58.349Z,7.03
2018-12-02T08:46:19.415Z,7.10
2018-12-02T08:46:58.407Z,7.00
2018-12-02T08:47:58.454Z,7.04
2018-12-02T08:49:19.467Z,7.04
2018-12-02T08:49:58.495Z,7.05
2018-12-02T08:51:19.508Z,6.96
2018-12-02T08:51:58.523Z,7.00
2018-12-02T08:52:58.531Z,7.03
2018-12-02T08:54:19.590Z,7.01
2018-12-02T08:54:58.572Z,7.00
2018-12-02T08:56:19.629Z,7.08
2018-12-02T08:56:58.605Z,7.18
2018-12-02T08:57:58.628Z,7.03
2018-12-02T08:59:19.668Z,7.05
2018-12-02T08:59:58.682Z,7.15
2018-12-02T09:01:19.706Z,7.11
2018-12-02T09:01:58.703Z,7.01
2018-12-02T09:02:58.726Z,7.15
2018-12-02T09:04:19.807Z,7.04
2018-12-02T09:04:58.751Z,7.04
2018-12-02T09:06:19.823Z,7.10
2018-12-02T09:06:58.811Z,7.11
2018-12-02T09:07:58.851Z,7.18
2018-12-02T09:09:19.869Z,7.14
2018-12-02T09:09:59.663Z,7.10
2018-12-02T09:11:19.894Z,7.11
2018-12-02T09:11:58.899Z,7.13
2018-12-02T09:12:58.930Z,7.11
2018-12-02T09:14:19.964Z,7.11
2018-12-02T09:14:59.378Z,7.25
2018-12-02T09:16:19.996Z,7.37
2018-12-02T09:16:59.017Z,7.13
2018-12-02T09:17:59.092Z,7.25
2018-12-02T09:19:20.041Z,7.26
2018-12-02T09:19:59.056Z,7.32
2018-12-02T09:21:20.098Z,7.23
2018-12-02T09:21:59.099Z,7.11
2018-12-02T09:22:59.096Z,7.32
2018-12-02T09:24:20.155Z,7.32
2018-12-02T09:24:59.165Z,7.29
2018-12-02T09:26:20.439Z,7.46
2018-12-02T09:26:59.221Z,7.43
2018-12-02T09:27:59.225Z,7.41
2018-12-02T09:29:20.270Z,7.32
2018-12-02T09:29:59.367Z,7.37
2018-12-02T09:31:20.286Z,7.39
2018-12-02T09:31:59.505Z,7.40
2018-12-02T09:32:59.744Z,7.44
2018-12-02T09:34:20.354Z,7.48
2018-12-02T09:34:59.483Z,7.41
2018-12-02T09:36:20.400Z,7.36
2018-12-02T09:36:59.385Z,7.43
2018-12-02T09:37:59.433Z,7.36
2018-12-02T09:39:20.447Z,7.56
2018-12-02T09:39:59.497Z,7.47
2018-12-02T09:41:20.590Z,7.64
2018-12-02T09:41:59.498Z,7.48
2018-12-02T09:42:59.502Z,7.59
2018-12-02T09:44:20.559Z,7.59
2018-12-02T09:44:59.575Z,7.69
2018-12-02T09:46:20.603Z,7.55
2018-12-02T09:46:59.591Z,7.50
2018-12-02T09:47:59.619Z,7.70
2018-12-02T09:49:20.651Z,7.61
2018-12-02T09:49:59.687Z,7.67
2018-12-02T09:51:20.713Z,7.66
2018-12-02T09:51:59.715Z,7.51
2018-12-02T09:52:59.738Z,7.66
2018-12-02T09:54:23.314Z,7.66
2018-12-02T09:54:59.779Z,7.62
2018-12-02T09:56:20.855Z,7.56
2018-12-02T09:56:59.815Z,7.59
2018-12-02T09:57:59.848Z,7.59
2018-12-02T09:59:20.834Z,7.74
2018-12-02T09:59:59.858Z,7.64
2018-12-02T10:01:20.911Z,7.64
2018-12-02T10:01:59.892Z,7.67
2018-12-02T10:02:59.912Z,7.67
2018-12-02T10:04:21.788Z,7.66
2018-12-02T10:04:59.949Z,7.66
2018-12-02T10:06:20.995Z,7.70
2018-12-02T10:06:59.986Z,7.72
2018-12-02T10:08:00.044Z,7.69
2018-12-02T10:09:21.084Z,7.81
2018-12-02T10:10:00.047Z,7.88
2018-12-02T10:11:21.117Z,7.78
2018-12-02T10:12:00.108Z,7.80
2018-12-02T10:13:00.109Z,7.75
2018-12-02T10:14:21.154Z,7.77
2018-12-02T10:15:00.151Z,7.85
2018-12-02T10:16:21.174Z,7.96
2018-12-02T10:17:00.213Z,7.85
2018-12-02T10:18:00.248Z,7.87
2018-12-02T10:19:21.248Z,7.81
2018-12-02T10:20:00.269Z,7.88
2018-12-02T10:21:21.272Z,7.88
2018-12-02T10:22:00.286Z,7.87
2018-12-02T10:23:00.306Z,7.96
2018-12-02T10:24:21.343Z,7.90
2018-12-02T10:25:00.360Z,7.87
2018-12-02T10:26:21.376Z,7.90
2018-12-02T10:27:00.413Z,7.99
2018-12-02T10:28:00.444Z,7.87
2018-12-02T10:29:21.444Z,7.91
2018-12-02T10:30:00.460Z,7.93
2018-12-02T10:31:21.488Z,7.99
2018-12-02T10:32:00.497Z,8.05
2018-12-02T10:33:00.582Z,8.08
2018-12-02T10:34:21.563Z,8.17
2018-12-02T10:35:00.585Z,8.08
2018-12-02T10:36:21.618Z,8.08
2018-12-02T10:37:00.598Z,8.17
2018-12-02T10:38:00.606Z,8.16
2018-12-02T10:39:21.670Z,8.18
2018-12-02T10:40:00.646Z,8.16
2018-12-02T10:41:21.673Z,8.17
2018-12-02T10:42:00.699Z,8.27
2018-12-02T10:43:00.730Z,8.34
2018-12-02T10:44:21.789Z,8.13
2018-12-02T10:45:00.760Z,8.31
2018-12-02T10:46:21.810Z,8.41
2018-12-02T10:47:00.797Z,8.24
2018-12-02T10:48:00.862Z,8.36
2018-12-02T10:49:21.874Z,8.49
2018-12-02T10:50:00.893Z,8.42
2018-12-02T10:51:21.907Z,8.45
2018-12-02T10:52:00.914Z,8.46
2018-12-02T10:53:00.972Z,8.41
2018-12-02T10:54:22.034Z,8.45
2018-12-02T10:55:01.192Z,8.56
2018-12-02T10:56:22.016Z,8.59
2018-12-02T10:57:01.061Z,8.53
2018-12-02T10:58:01.043Z,8.54
2018-12-02T10:59:22.070Z,8.52
2018-12-02T11:00:01.099Z,8.54
2018-12-02T11:01:22.120Z,8.46
2018-12-02T11:02:01.127Z,8.50
2018-12-02T11:03:01.193Z,8.59
2018-12-02T11:04:22.207Z,8.60
2018-12-02T11:05:01.364Z,8.57
2018-12-02T11:06:22.240Z,8.52
2018-12-02T11:07:01.225Z,8.52
2018-12-02T11:08:01.261Z,8.59
2018-12-02T11:09:22.266Z,8.57
2018-12-02T11:10:01.295Z,8.61
2018-12-02T11:11:22.313Z,8.61
2018-12-02T11:12:01.311Z,8.59
2018-12-02T11:13:01.344Z,8.61
2018-12-02T11:14:22.453Z,8.63
2018-12-02T11:15:01.411Z,8.69
2018-12-02T11:16:22.408Z,8.57
2018-12-02T11:17:01.457Z,8.63
2018-12-02T11:18:01.464Z,8.74
2018-12-02T11:19:22.476Z,8.56
2018-12-02T11:20:01.500Z,8.63
2018-12-02T11:21:22.546Z,8.64
2018-12-02T11:22:01.671Z,8.68
2018-12-02T11:23:01.646Z,8.60
2018-12-02T11:24:23.273Z,8.57
2018-12-02T11:25:01.621Z,8.69
2018-12-02T11:26:23.278Z,8.72
2018-12-02T11:27:01.719Z,8.64
2018-12-02T11:28:03.980Z,8.71
2018-12-02T11:29:22.778Z,8.64
2018-12-02T11:30:01.707Z,8.57
2018-12-02T11:31:22.864Z,8.60
2018-12-02T11:32:01.875Z,8.57
2018-12-02T11:33:01.758Z,8.59
2018-12-02T11:34:22.850Z,8.54
2018-12-02T11:35:01.809Z,8.69
2018-12-02T11:36:22.921Z,8.68
2018-12-02T11:37:01.855Z,8.63
2018-12-02T11:38:01.872Z,8.74
2018-12-02T11:39:23.139Z,8.66
2018-12-02T11:40:01.888Z,8.59
2018-12-02T11:41:23.039Z,8.69
2018-12-02T11:42:02.240Z,8.69
2018-12-02T11:43:01.964Z,8.60
2018-12-02T11:44:23.010Z,8.57
2018-12-02T11:45:02.056Z,8.69
2018-12-02T11:46:23.064Z,8.52
2018-12-02T11:47:02.030Z,8.61
2018-12-02T11:48:02.182Z,8.64
2018-12-02T11:49:23.105Z,8.71
2018-12-02T11:50:02.264Z,8.69
2018-12-02T11:51:23.175Z,8.64
2018-12-02T11:52:02.182Z,8.59
2018-12-02T11:53:02.234Z,8.60
2018-12-02T11:54:23.210Z,8.59
2018-12-02T11:55:02.216Z,8.60
2018-12-02T11:56:23.274Z,8.56
2018-12-02T11:57:02.303Z,8.52
2018-12-02T11:58:02.325Z,8.57
2018-12-02T11:59:23.317Z,8.57
2018-12-02T12:00:02.369Z,8.49
2018-12-02T12:01:23.366Z,8.52
2018-12-02T12:02:07.528Z,8.59
2018-12-02T12:03:02.393Z,8.72
2018-12-02T12:04:23.434Z,8.68
2018-12-02T12:05:02.455Z,8.61
2018-12-02T12:06:23.514Z,8.72
2018-12-02T12:07:02.495Z,8.63
2018-12-02T12:08:02.500Z,8.61
2018-12-02T12:09:23.547Z,8.71
2018-12-02T12:10:02.499Z,8.64
2018-12-02T12:11:23.583Z,8.74
2018-12-02T12:12:02.586Z,8.66
2018-12-02T12:13:02.616Z,8.68
2018-12-02T12:14:23.694Z,8.64
2018-12-02T12:15:02.627Z,8.71
2018-12-02T12:16:23.690Z,8.68
2018-12-02T12:17:02.663Z,8.57
2018-12-02T12:18:02.715Z,8.64
2018-12-02T12:19:23.795Z,8.69
2018-12-02T12:20:02.761Z,8.68
2018-12-02T12:21:23.755Z,8.78
2018-12-02T12:22:02.795Z,8.66
2018-12-02T12:23:02.787Z,8.71
2018-12-02T12:24:23.811Z,8.66
2018-12-02T12:25:02.858Z,8.66
2018-12-02T12:26:23.931Z,8.72
2018-12-02T12:27:02.902Z,8.84
2018-12-02T12:28:02.884Z,8.82
2018-12-02T12:29:23.917Z,8.78
2018-12-02T12:30:02.965Z,8.72
2018-12-02T12:31:23.976Z,8.74
2018-12-02T12:32:02.974Z,8.81
2018-12-02T12:33:03.039Z,8.82
2018-12-02T12:34:23.997Z,8.90
2018-12-02T12:35:03.038Z,8.87
2018-12-02T12:36:24.048Z,8.81
2018-12-02T12:37:03.132Z,8.79
2018-12-02T12:38:03.077Z,8.89
2018-12-02T12:39:24.114Z,8.89
2018-12-02T12:40:03.172Z,8.89
2018-12-02T12:41:24.127Z,8.78
2018-12-02T12:42:03.162Z,8.81
2018-12-02T12:43:03.178Z,8.87
2018-12-02T12:44:24.207Z,8.84
2018-12-02T12:45:03.229Z,8.79
2018-12-02T12:46:24.272Z,8.75
2018-12-02T12:47:03.263Z,8.75
2018-12-02T12:48:03.300Z,8.84
2018-12-02T12:49:24.324Z,8.77
2018-12-02T12:50:03.363Z,8.68
2018-12-02T12:51:24.395Z,8.78
2018-12-02T12:52:03.380Z,8.75
2018-12-02T12:53:03.394Z,8.75
2018-12-02T12:54:24.430Z,8.86
2018-12-02T12:55:03.448Z,8.69
2018-12-02T12:56:24.475Z,8.77
2018-12-02T12:57:03.527Z,8.77
2018-12-02T12:58:03.501Z,8.75
2018-12-02T12:59:24.541Z,8.75
2018-12-02T13:00:03.535Z,8.72
2018-12-02T13:01:24.569Z,8.72
2018-12-02T13:02:03.574Z,8.66
2018-12-02T13:03:03.608Z,8.71
2018-12-02T13:04:24.650Z,8.72
2018-12-02T13:05:03.658Z,8.60
2018-12-02T13:06:24.704Z,8.66
2018-12-02T13:07:03.673Z,8.75
2018-12-02T13:08:03.722Z,8.71
2018-12-02T13:09:24.745Z,8.56
2018-12-02T13:10:03.756Z,8.68
2018-12-02T13:11:24.794Z,8.66
2018-12-02T13:12:03.795Z,8.64
2018-12-02T13:13:03.813Z,8.64
2018-12-02T13:14:24.858Z,8.63
2018-12-02T13:15:03.855Z,8.69
2018-12-02T13:16:24.869Z,8.53
2018-12-02T13:17:03.876Z,8.60
2018-12-02T13:18:03.922Z,8.53
2018-12-02T13:19:24.941Z,8.50
2018-12-02T13:20:03.936Z,8.53
2018-12-02T13:21:24.975Z,8.49
2018-12-02T13:22:03.987Z,8.56
2018-12-02T13:23:04.027Z,8.66
2018-12-02T13:24:25.061Z,8.53